sensor_id;sensor_type;location;lat;lon;timestamp;P1;durP1;ratioP1;P2;durP2;ratioP2
32138;SDS011;18644;48.700;9.210;2023-02-11T00:01:21;23.50;;;12.25;;
32138;SDS011;18644;48.700;9.210;2023-02-11T00:03:51;20.75;;;10.75;;
32138;SDS011;18644;48.700;9.210;2023-02-11T00:06:19;23.42;;;12.63;;
32138;SDS011;18644;48.700;9.210;2023-02-11T00:08:50;23.63;;;12.10;;
32138;SDS011;18644;48.700;9.210;2023-02-11T00:11:17;26.17;;;13.65;;
32138;SDS011;18644;48.700;9.210;2023-02-11T00:13:47;22.88;;;12.90;;
32138;SDS011;18644;48.700;9.210;2023-02-11T00:16:15;28.20;;;14.40;;
32138;SDS011;18644;48.700;9.210;2023-02-11T00:18:45;27.13;;;14.20;;
32138;SDS011;18644;48.700;9.210;2023-02-11T00:21:14;29.10;;;14.95;;
32138;SDS011;18644;48.700;9.210;2023-02-11T00:23:44;31.98;;;14.73;;
32138;SDS011;18644;48.700;9.210;2023-02-11T00:26:12;28.65;;;15.15;;
32138;SDS011;18644;48.700;9.210;2023-02-11T00:28:40;25.15;;;13.45;;
32138;SDS011;18644;48.700;9.210;2023-02-11T00:31:07;31.02;;;15.43;;
32138;SDS011;18644;48.700;9.210;2023-02-11T00:33:34;27.50;;;14.25;;
32138;SDS011;18644;48.700;9.210;2023-02-11T00:36:04;29.80;;;14.15;;
32138;SDS011;18644;48.700;9.210;2023-02-11T00:38:32;29.40;;;14.43;;
32138;SDS011;18644;48.700;9.210;2023-02-11T00:40:59;25.92;;;13.35;;
32138;SDS011;18644;48.700;9.210;2023-02-11T00:43:26;25.90;;;12.38;;
32138;SDS011;18644;48.700;9.210;2023-02-11T00:45:53;25.58;;;12.63;;
32138;SDS011;18644;48.700;9.210;2023-02-11T00:48:20;31.73;;;12.52;;
32138;SDS011;18644;48.700;9.210;2023-02-11T00:50:47;21.13;;;12.13;;
32138;SDS011;18644;48.700;9.210;2023-02-11T00:53:15;24.23;;;11.93;;
32138;SDS011;18644;48.700;9.210;2023-02-11T00:55:42;22.33;;;11.50;;
32138;SDS011;18644;48.700;9.210;2023-02-11T00:58:09;22.60;;;12.57;;
32138;SDS011;18644;48.700;9.210;2023-02-11T01:00:36;25.23;;;12.80;;
32138;SDS011;18644;48.700;9.210;2023-02-11T01:03:03;26.83;;;13.90;;
32138;SDS011;18644;48.700;9.210;2023-02-11T01:05:31;25.83;;;13.48;;
32138;SDS011;18644;48.700;9.210;2023-02-11T01:07:58;29.63;;;13.95;;
32138;SDS011;18644;48.700;9.210;2023-02-11T01:10:26;29.13;;;14.73;;
32138;SDS011;18644;48.700;9.210;2023-02-11T01:12:54;26.05;;;13.13;;
32138;SDS011;18644;48.700;9.210;2023-02-11T01:15:21;26.95;;;13.25;;
32138;SDS011;18644;48.700;9.210;2023-02-11T01:17:48;26.08;;;13.07;;
32138;SDS011;18644;48.700;9.210;2023-02-11T01:20:18;21.70;;;12.30;;
32138;SDS011;18644;48.700;9.210;2023-02-11T01:22:47;25.92;;;12.35;;
32138;SDS011;18644;48.700;9.210;2023-02-11T01:25:14;26.67;;;11.98;;
32138;SDS011;18644;48.700;9.210;2023-02-11T01:27:43;20.23;;;11.25;;
32138;SDS011;18644;48.700;9.210;2023-02-11T01:30:11;22.98;;;11.75;;
32138;SDS011;18644;48.700;9.210;2023-02-11T01:32:39;25.70;;;12.93;;
32138;SDS011;18644;48.700;9.210;2023-02-11T01:35:06;22.02;;;12.55;;
32138;SDS011;18644;48.700;9.210;2023-02-11T01:37:34;24.75;;;12.20;;
32138;SDS011;18644;48.700;9.210;2023-02-11T01:40:01;28.58;;;12.38;;
32138;SDS011;18644;48.700;9.210;2023-02-11T01:42:29;23.40;;;12.85;;
32138;SDS011;18644;48.700;9.210;2023-02-11T01:44:58;24.92;;;12.88;;
32138;SDS011;18644;48.700;9.210;2023-02-11T01:47:29;23.25;;;11.95;;
32138;SDS011;18644;48.700;9.210;2023-02-11T01:49:56;22.00;;;12.15;;
32138;SDS011;18644;48.700;9.210;2023-02-11T01:52:27;27.60;;;14.50;;
32138;SDS011;18644;48.700;9.210;2023-02-11T01:54:58;21.38;;;11.90;;
32138;SDS011;18644;48.700;9.210;2023-02-11T01:57:48;25.98;;;13.95;;
32138;SDS011;18644;48.700;9.210;2023-02-11T02:00:21;29.70;;;14.55;;
32138;SDS011;18644;48.700;9.210;2023-02-11T02:02:55;23.33;;;13.07;;
32138;SDS011;18644;48.700;9.210;2023-02-11T02:05:29;24.42;;;12.63;;
32138;SDS011;18644;48.700;9.210;2023-02-11T02:08:03;22.45;;;12.13;;
32138;SDS011;18644;48.700;9.210;2023-02-11T02:10:37;22.85;;;11.95;;
32138;SDS011;18644;48.700;9.210;2023-02-11T02:13:09;26.13;;;12.73;;
32138;SDS011;18644;48.700;9.210;2023-02-11T02:15:39;21.77;;;12.15;;
32138;SDS011;18644;48.700;9.210;2023-02-11T02:18:13;30.00;;;13.25;;
32138;SDS011;18644;48.700;9.210;2023-02-11T02:21:07;20.33;;;10.80;;
32138;SDS011;18644;48.700;9.210;2023-02-11T02:24:20;20.63;;;11.23;;
32138;SDS011;18644;48.700;9.210;2023-02-11T02:27:23;22.77;;;11.40;;
32138;SDS011;18644;48.700;9.210;2023-02-11T02:30:29;25.13;;;12.65;;
32138;SDS011;18644;48.700;9.210;2023-02-11T02:33:41;22.48;;;11.63;;
32138;SDS011;18644;48.700;9.210;2023-02-11T02:36:19;20.67;;;11.20;;
32138;SDS011;18644;48.700;9.210;2023-02-11T02:38:50;24.27;;;12.52;;
32138;SDS011;18644;48.700;9.210;2023-02-11T02:41:22;21.40;;;11.10;;
32138;SDS011;18644;48.700;9.210;2023-02-11T02:43:53;19.25;;;10.93;;
32138;SDS011;18644;48.700;9.210;2023-02-11T02:46:20;25.33;;;12.27;;
32138;SDS011;18644;48.700;9.210;2023-02-11T02:48:52;24.88;;;12.95;;
32138;SDS011;18644;48.700;9.210;2023-02-11T02:51:29;23.48;;;12.15;;
32138;SDS011;18644;48.700;9.210;2023-02-11T02:54:24;20.73;;;11.25;;
32138;SDS011;18644;48.700;9.210;2023-02-11T02:57:16;24.45;;;12.25;;
32138;SDS011;18644;48.700;9.210;2023-02-11T03:00:00;22.08;;;11.85;;
32138;SDS011;18644;48.700;9.210;2023-02-11T03:05:22;18.45;;;9.25;;
32138;SDS011;18644;48.700;9.210;2023-02-11T03:07:57;23.75;;;11.75;;
32138;SDS011;18644;48.700;9.210;2023-02-11T03:10:33;24.08;;;11.50;;
32138;SDS011;18644;48.700;9.210;2023-02-11T03:13:03;18.02;;;10.23;;
32138;SDS011;18644;48.700;9.210;2023-02-11T03:15:33;23.55;;;12.98;;
32138;SDS011;18644;48.700;9.210;2023-02-11T03:18:03;24.33;;;12.40;;
32138;SDS011;18644;48.700;9.210;2023-02-11T03:20:36;20.60;;;11.15;;
32138;SDS011;18644;48.700;9.210;2023-02-11T03:23:07;20.13;;;11.63;;
32138;SDS011;18644;48.700;9.210;2023-02-11T03:25:43;24.45;;;12.60;;
32138;SDS011;18644;48.700;9.210;2023-02-11T03:28:18;27.90;;;13.05;;
32138;SDS011;18644;48.700;9.210;2023-02-11T03:30:55;27.33;;;12.77;;
32138;SDS011;18644;48.700;9.210;2023-02-11T03:33:34;23.60;;;12.70;;
32138;SDS011;18644;48.700;9.210;2023-02-11T03:36:08;21.05;;;11.75;;
32138;SDS011;18644;48.700;9.210;2023-02-11T03:38:42;23.08;;;12.60;;
32138;SDS011;18644;48.700;9.210;2023-02-11T03:41:14;22.15;;;11.90;;
32138;SDS011;18644;48.700;9.210;2023-02-11T03:43:47;22.83;;;12.00;;
32138;SDS011;18644;48.700;9.210;2023-02-11T03:46:19;19.75;;;11.32;;
32138;SDS011;18644;48.700;9.210;2023-02-11T03:48:51;23.17;;;12.45;;
32138;SDS011;18644;48.700;9.210;2023-02-11T03:51:23;23.05;;;13.73;;
32138;SDS011;18644;48.700;9.210;2023-02-11T03:53:53;26.58;;;13.52;;
32138;SDS011;18644;48.700;9.210;2023-02-11T03:56:24;23.00;;;12.97;;
32138;SDS011;18644;48.700;9.210;2023-02-11T03:58:55;23.60;;;13.15;;
32138;SDS011;18644;48.700;9.210;2023-02-11T04:01:22;17.27;;;10.85;;
32138;SDS011;18644;48.700;9.210;2023-02-11T04:03:49;24.60;;;13.55;;
32138;SDS011;18644;48.700;9.210;2023-02-11T04:06:16;23.08;;;12.15;;
32138;SDS011;18644;48.700;9.210;2023-02-11T04:08:44;23.00;;;11.93;;
32138;SDS011;18644;48.700;9.210;2023-02-11T04:11:11;20.00;;;11.23;;
32138;SDS011;18644;48.700;9.210;2023-02-11T04:13:38;21.88;;;12.63;;
32138;SDS011;18644;48.700;9.210;2023-02-11T04:16:05;20.08;;;11.02;;
32138;SDS011;18644;48.700;9.210;2023-02-11T04:18:32;23.48;;;11.65;;
32138;SDS011;18644;48.700;9.210;2023-02-11T04:20:59;28.20;;;13.15;;
32138;SDS011;18644;48.700;9.210;2023-02-11T04:23:26;24.33;;;12.88;;
32138;SDS011;18644;48.700;9.210;2023-02-11T04:25:54;24.38;;;13.00;;
32138;SDS011;18644;48.700;9.210;2023-02-11T04:28:21;26.23;;;12.68;;
32138;SDS011;18644;48.700;9.210;2023-02-11T04:30:48;23.02;;;12.68;;
32138;SDS011;18644;48.700;9.210;2023-02-11T04:33:16;26.15;;;13.30;;
32138;SDS011;18644;48.700;9.210;2023-02-11T04:35:43;24.27;;;12.95;;
32138;SDS011;18644;48.700;9.210;2023-02-11T04:38:10;18.27;;;11.57;;
32138;SDS011;18644;48.700;9.210;2023-02-11T04:40:37;26.58;;;13.70;;
32138;SDS011;18644;48.700;9.210;2023-02-11T04:43:06;23.65;;;12.73;;
32138;SDS011;18644;48.700;9.210;2023-02-11T04:45:33;26.65;;;14.80;;
32138;SDS011;18644;48.700;9.210;2023-02-11T04:48:00;22.77;;;13.10;;
32138;SDS011;18644;48.700;9.210;2023-02-11T04:50:27;25.23;;;13.35;;
32138;SDS011;18644;48.700;9.210;2023-02-11T04:52:54;28.85;;;13.85;;
32138;SDS011;18644;48.700;9.210;2023-02-11T04:55:21;28.40;;;13.55;;
32138;SDS011;18644;48.700;9.210;2023-02-11T04:57:48;25.58;;;13.73;;
32138;SDS011;18644;48.700;9.210;2023-02-11T05:00:17;24.00;;;13.25;;
32138;SDS011;18644;48.700;9.210;2023-02-11T05:02:44;32.13;;;14.07;;
32138;SDS011;18644;48.700;9.210;2023-02-11T05:05:11;28.38;;;15.63;;
32138;SDS011;18644;48.700;9.210;2023-02-11T05:07:37;26.40;;;14.15;;
32138;SDS011;18644;48.700;9.210;2023-02-11T05:10:05;25.90;;;13.13;;
32138;SDS011;18644;48.700;9.210;2023-02-11T05:12:32;21.85;;;12.40;;
32138;SDS011;18644;48.700;9.210;2023-02-11T05:14:58;25.83;;;13.88;;
32138;SDS011;18644;48.700;9.210;2023-02-11T05:17:27;26.95;;;14.25;;
32138;SDS011;18644;48.700;9.210;2023-02-11T05:19:54;26.75;;;13.55;;
32138;SDS011;18644;48.700;9.210;2023-02-11T05:22:21;27.13;;;13.73;;
32138;SDS011;18644;48.700;9.210;2023-02-11T05:24:48;25.08;;;13.38;;
32138;SDS011;18644;48.700;9.210;2023-02-11T05:27:15;23.23;;;14.18;;
32138;SDS011;18644;48.700;9.210;2023-02-11T05:29:42;25.48;;;13.68;;
32138;SDS011;18644;48.700;9.210;2023-02-11T05:32:09;25.67;;;13.45;;
32138;SDS011;18644;48.700;9.210;2023-02-11T05:34:37;29.73;;;14.65;;
32138;SDS011;18644;48.700;9.210;2023-02-11T05:37:04;27.15;;;14.27;;
32138;SDS011;18644;48.700;9.210;2023-02-11T05:39:31;23.42;;;13.18;;
32138;SDS011;18644;48.700;9.210;2023-02-11T05:41:58;29.60;;;15.20;;
32138;SDS011;18644;48.700;9.210;2023-02-11T05:44:25;29.80;;;13.38;;
32138;SDS011;18644;48.700;9.210;2023-02-11T05:46:52;29.25;;;14.40;;
32138;SDS011;18644;48.700;9.210;2023-02-11T05:49:19;28.10;;;14.75;;
32138;SDS011;18644;48.700;9.210;2023-02-11T05:51:47;26.77;;;13.98;;
32138;SDS011;18644;48.700;9.210;2023-02-11T05:54:14;25.75;;;13.90;;
32138;SDS011;18644;48.700;9.210;2023-02-11T05:56:42;22.60;;;13.57;;
32138;SDS011;18644;48.700;9.210;2023-02-11T05:59:09;25.67;;;14.00;;
32138;SDS011;18644;48.700;9.210;2023-02-11T06:01:39;23.85;;;12.45;;
32138;SDS011;18644;48.700;9.210;2023-02-11T06:04:06;24.23;;;12.65;;
32138;SDS011;18644;48.700;9.210;2023-02-11T06:06:33;30.58;;;14.68;;
32138;SDS011;18644;48.700;9.210;2023-02-11T06:09:01;21.85;;;12.13;;
32138;SDS011;18644;48.700;9.210;2023-02-11T06:11:29;25.30;;;14.30;;
32138;SDS011;18644;48.700;9.210;2023-02-11T06:13:56;23.90;;;13.20;;
32138;SDS011;18644;48.700;9.210;2023-02-11T06:16:22;24.90;;;13.18;;
32138;SDS011;18644;48.700;9.210;2023-02-11T06:18:49;22.48;;;13.00;;
32138;SDS011;18644;48.700;9.210;2023-02-11T06:21:16;28.13;;;14.77;;
32138;SDS011;18644;48.700;9.210;2023-02-11T06:23:43;33.20;;;17.75;;
32138;SDS011;18644;48.700;9.210;2023-02-11T06:26:14;34.00;;;16.05;;
32138;SDS011;18644;48.700;9.210;2023-02-11T06:28:45;28.23;;;16.02;;
32138;SDS011;18644;48.700;9.210;2023-02-11T06:31:13;28.45;;;15.45;;
32138;SDS011;18644;48.700;9.210;2023-02-11T06:33:40;27.27;;;15.23;;
32138;SDS011;18644;48.700;9.210;2023-02-11T06:36:11;25.98;;;14.27;;
32138;SDS011;18644;48.700;9.210;2023-02-11T06:38:40;27.00;;;14.38;;
32138;SDS011;18644;48.700;9.210;2023-02-11T06:41:08;28.90;;;15.23;;
32138;SDS011;18644;48.700;9.210;2023-02-11T06:43:37;29.40;;;15.85;;
32138;SDS011;18644;48.700;9.210;2023-02-11T06:46:06;30.38;;;16.55;;
32138;SDS011;18644;48.700;9.210;2023-02-11T06:48:33;29.27;;;16.58;;
32138;SDS011;18644;48.700;9.210;2023-02-11T06:51:01;27.40;;;15.55;;
32138;SDS011;18644;48.700;9.210;2023-02-11T06:53:30;29.60;;;15.70;;
32138;SDS011;18644;48.700;9.210;2023-02-11T06:56:00;24.38;;;14.15;;
32138;SDS011;18644;48.700;9.210;2023-02-11T06:58:28;28.80;;;16.30;;
32138;SDS011;18644;48.700;9.210;2023-02-11T07:00:57;25.52;;;14.10;;
32138;SDS011;18644;48.700;9.210;2023-02-11T07:03:25;29.70;;;15.20;;
32138;SDS011;18644;48.700;9.210;2023-02-11T07:05:52;28.50;;;14.73;;
32138;SDS011;18644;48.700;9.210;2023-02-11T07:08:18;25.88;;;14.15;;
32138;SDS011;18644;48.700;9.210;2023-02-11T07:10:45;24.85;;;13.48;;
32138;SDS011;18644;48.700;9.210;2023-02-11T07:13:12;23.80;;;13.50;;
32138;SDS011;18644;48.700;9.210;2023-02-11T07:15:39;24.60;;;13.20;;
32138;SDS011;18644;48.700;9.210;2023-02-11T07:18:07;26.10;;;14.75;;
32138;SDS011;18644;48.700;9.210;2023-02-11T07:20:35;28.50;;;15.00;;
32138;SDS011;18644;48.700;9.210;2023-02-11T07:23:03;27.52;;;14.45;;
32138;SDS011;18644;48.700;9.210;2023-02-11T07:25:30;24.50;;;12.75;;
32138;SDS011;18644;48.700;9.210;2023-02-11T07:27:57;21.52;;;12.40;;
32138;SDS011;18644;48.700;9.210;2023-02-11T07:30:24;22.60;;;12.93;;
32138;SDS011;18644;48.700;9.210;2023-02-11T07:32:51;26.55;;;13.48;;
32138;SDS011;18644;48.700;9.210;2023-02-11T07:35:19;22.92;;;13.55;;
32138;SDS011;18644;48.700;9.210;2023-02-11T07:37:46;24.95;;;13.77;;
32138;SDS011;18644;48.700;9.210;2023-02-11T07:40:13;23.98;;;14.40;;
32138;SDS011;18644;48.700;9.210;2023-02-11T07:42:40;24.80;;;13.25;;
32138;SDS011;18644;48.700;9.210;2023-02-11T07:45:07;24.35;;;14.27;;
32138;SDS011;18644;48.700;9.210;2023-02-11T07:47:34;26.88;;;14.85;;
32138;SDS011;18644;48.700;9.210;2023-02-11T07:50:02;28.17;;;15.27;;
32138;SDS011;18644;48.700;9.210;2023-02-11T07:52:32;23.90;;;14.82;;
32138;SDS011;18644;48.700;9.210;2023-02-11T07:54:59;27.00;;;15.02;;
32138;SDS011;18644;48.700;9.210;2023-02-11T07:57:25;23.08;;;13.88;;
32138;SDS011;18644;48.700;9.210;2023-02-11T07:59:52;23.42;;;13.93;;
32138;SDS011;18644;48.700;9.210;2023-02-11T08:02:19;25.25;;;14.43;;
32138;SDS011;18644;48.700;9.210;2023-02-11T08:04:46;24.35;;;14.60;;
32138;SDS011;18644;48.700;9.210;2023-02-11T08:07:14;25.58;;;14.25;;
32138;SDS011;18644;48.700;9.210;2023-02-11T08:09:43;28.00;;;15.65;;
32138;SDS011;18644;48.700;9.210;2023-02-11T08:12:10;26.05;;;15.20;;
32138;SDS011;18644;48.700;9.210;2023-02-11T08:14:37;25.70;;;14.68;;
32138;SDS011;18644;48.700;9.210;2023-02-11T08:17:04;27.63;;;15.00;;
32138;SDS011;18644;48.700;9.210;2023-02-11T08:19:31;27.00;;;15.35;;
32138;SDS011;18644;48.700;9.210;2023-02-11T08:21:58;26.58;;;15.60;;
32138;SDS011;18644;48.700;9.210;2023-02-11T08:24:26;28.30;;;14.45;;
32138;SDS011;18644;48.700;9.210;2023-02-11T08:26:54;24.75;;;13.25;;
32138;SDS011;18644;48.700;9.210;2023-02-11T08:29:21;27.50;;;14.00;;
32138;SDS011;18644;48.700;9.210;2023-02-11T08:31:48;20.52;;;11.48;;
32138;SDS011;18644;48.700;9.210;2023-02-11T08:34:15;26.92;;;13.00;;
32138;SDS011;18644;48.700;9.210;2023-02-11T08:36:43;25.80;;;14.40;;
32138;SDS011;18644;48.700;9.210;2023-02-11T08:39:13;25.52;;;14.30;;
32138;SDS011;18644;48.700;9.210;2023-02-11T08:41:42;25.40;;;14.35;;
32138;SDS011;18644;48.700;9.210;2023-02-11T08:44:10;25.30;;;14.45;;
32138;SDS011;18644;48.700;9.210;2023-02-11T08:46:38;27.95;;;15.38;;
32138;SDS011;18644;48.700;9.210;2023-02-11T08:49:05;27.48;;;14.93;;
32138;SDS011;18644;48.700;9.210;2023-02-11T08:51:32;22.83;;;14.35;;
32138;SDS011;18644;48.700;9.210;2023-02-11T08:53:59;26.65;;;16.35;;
32138;SDS011;18644;48.700;9.210;2023-02-11T08:56:26;30.77;;;15.85;;
32138;SDS011;18644;48.700;9.210;2023-02-11T08:58:55;23.38;;;13.32;;
32138;SDS011;18644;48.700;9.210;2023-02-11T09:01:24;22.95;;;13.20;;
32138;SDS011;18644;48.700;9.210;2023-02-11T09:03:53;24.10;;;13.70;;
32138;SDS011;18644;48.700;9.210;2023-02-11T09:06:21;26.33;;;13.73;;
32138;SDS011;18644;48.700;9.210;2023-02-11T09:08:50;24.98;;;14.20;;
32138;SDS011;18644;48.700;9.210;2023-02-11T09:11:20;23.48;;;14.63;;
32138;SDS011;18644;48.700;9.210;2023-02-11T09:13:51;27.73;;;14.35;;
32138;SDS011;18644;48.700;9.210;2023-02-11T09:16:19;24.67;;;14.40;;
32138;SDS011;18644;48.700;9.210;2023-02-11T09:18:49;26.63;;;14.20;;
32138;SDS011;18644;48.700;9.210;2023-02-11T09:21:17;26.65;;;14.30;;
32138;SDS011;18644;48.700;9.210;2023-02-11T09:23:45;22.90;;;14.45;;
32138;SDS011;18644;48.700;9.210;2023-02-11T09:26:13;25.30;;;14.98;;
32138;SDS011;18644;48.700;9.210;2023-02-11T09:28:42;26.92;;;14.73;;
32138;SDS011;18644;48.700;9.210;2023-02-11T09:31:11;28.63;;;15.27;;
32138;SDS011;18644;48.700;9.210;2023-02-11T09:33:40;24.98;;;15.23;;
32138;SDS011;18644;48.700;9.210;2023-02-11T09:36:13;24.35;;;14.45;;
32138;SDS011;18644;48.700;9.210;2023-02-11T09:38:43;22.85;;;13.00;;
32138;SDS011;18644;48.700;9.210;2023-02-11T09:41:16;21.45;;;12.85;;
32138;SDS011;18644;48.700;9.210;2023-02-11T09:44:01;21.98;;;13.35;;
32138;SDS011;18644;48.700;9.210;2023-02-11T09:46:34;22.42;;;13.23;;
32138;SDS011;18644;48.700;9.210;2023-02-11T09:49:05;21.35;;;12.30;;
32138;SDS011;18644;48.700;9.210;2023-02-11T09:51:45;24.60;;;14.02;;
32138;SDS011;18644;48.700;9.210;2023-02-11T09:54:16;24.65;;;13.48;;
32138;SDS011;18644;48.700;9.210;2023-02-11T09:56:49;20.98;;;12.77;;
32138;SDS011;18644;48.700;9.210;2023-02-11T09:59:16;19.98;;;12.48;;
32138;SDS011;18644;48.700;9.210;2023-02-11T10:01:45;20.08;;;11.40;;
32138;SDS011;18644;48.700;9.210;2023-02-11T10:04:17;18.70;;;11.38;;
32138;SDS011;18644;48.700;9.210;2023-02-11T10:07:02;20.80;;;12.02;;
32138;SDS011;18644;48.700;9.210;2023-02-11T10:09:51;19.77;;;11.07;;
32138;SDS011;18644;48.700;9.210;2023-02-11T10:12:36;19.08;;;11.82;;
32138;SDS011;18644;48.700;9.210;2023-02-11T10:15:22;19.50;;;12.27;;
32138;SDS011;18644;48.700;9.210;2023-02-11T10:18:01;21.67;;;12.18;;
32138;SDS011;18644;48.700;9.210;2023-02-11T10:20:52;16.83;;;11.23;;
32138;SDS011;18644;48.700;9.210;2023-02-11T10:23:34;20.52;;;10.98;;
32138;SDS011;18644;48.700;9.210;2023-02-11T10:26:09;17.15;;;11.38;;
32138;SDS011;18644;48.700;9.210;2023-02-11T10:28:38;21.88;;;11.80;;
32138;SDS011;18644;48.700;9.210;2023-02-11T10:31:08;16.90;;;11.13;;
32138;SDS011;18644;48.700;9.210;2023-02-11T10:36:10;15.70;;;9.43;;
32138;SDS011;18644;48.700;9.210;2023-02-11T10:38:39;13.00;;;8.48;;
32138;SDS011;18644;48.700;9.210;2023-02-11T10:41:08;12.95;;;8.95;;
32138;SDS011;18644;48.700;9.210;2023-02-11T10:43:36;14.65;;;9.45;;
32138;SDS011;18644;48.700;9.210;2023-02-11T10:46:03;16.00;;;10.30;;
32138;SDS011;18644;48.700;9.210;2023-02-11T10:48:41;11.82;;;7.75;;
32138;SDS011;18644;48.700;9.210;2023-02-11T10:54:11;11.18;;;7.60;;
32138;SDS011;18644;48.700;9.210;2023-02-11T10:56:45;11.32;;;5.93;;
32138;SDS011;18644;48.700;9.210;2023-02-11T10:59:26;10.15;;;6.30;;
32138;SDS011;18644;48.700;9.210;2023-02-11T11:01:55;9.63;;;6.40;;
32138;SDS011;18644;48.700;9.210;2023-02-11T11:04:31;8.88;;;6.68;;
32138;SDS011;18644;48.700;9.210;2023-02-11T11:07:15;10.43;;;7.78;;
32138;SDS011;18644;48.700;9.210;2023-02-11T11:09:48;10.25;;;6.85;;
32138;SDS011;18644;48.700;9.210;2023-02-11T11:12:29;10.95;;;7.80;;
32138;SDS011;18644;48.700;9.210;2023-02-11T11:18:08;11.38;;;7.38;;
32138;SDS011;18644;48.700;9.210;2023-02-11T11:20:38;9.80;;;6.70;;
32138;SDS011;18644;48.700;9.210;2023-02-11T11:23:18;12.32;;;7.38;;
32138;SDS011;18644;48.700;9.210;2023-02-11T11:25:59;10.45;;;7.03;;
32138;SDS011;18644;48.700;9.210;2023-02-11T11:28:30;10.18;;;5.90;;
32138;SDS011;18644;48.700;9.210;2023-02-11T11:31:11;9.55;;;6.32;;
32138;SDS011;18644;48.700;9.210;2023-02-11T11:33:42;10.18;;;5.78;;
32138;SDS011;18644;48.700;9.210;2023-02-11T11:36:10;9.35;;;5.85;;
32138;SDS011;18644;48.700;9.210;2023-02-11T11:38:42;7.80;;;5.40;;
32138;SDS011;18644;48.700;9.210;2023-02-11T11:41:17;7.47;;;5.55;;
32138;SDS011;18644;48.700;9.210;2023-02-11T11:43:59;8.57;;;5.82;;
32138;SDS011;18644;48.700;9.210;2023-02-11T11:46:30;8.43;;;5.53;;
32138;SDS011;18644;48.700;9.210;2023-02-11T11:49:03;7.85;;;5.65;;
32138;SDS011;18644;48.700;9.210;2023-02-11T11:51:44;6.88;;;5.65;;
32138;SDS011;18644;48.700;9.210;2023-02-11T11:54:19;7.15;;;5.40;;
32138;SDS011;18644;48.700;9.210;2023-02-11T11:56:52;7.68;;;5.60;;
32138;SDS011;18644;48.700;9.210;2023-02-11T11:59:25;9.13;;;5.80;;
32138;SDS011;18644;48.700;9.210;2023-02-11T12:02:04;7.82;;;5.32;;
32138;SDS011;18644;48.700;9.210;2023-02-11T12:05:16;9.75;;;5.00;;
32138;SDS011;18644;48.700;9.210;2023-02-11T12:07:54;7.30;;;5.05;;
32138;SDS011;18644;48.700;9.210;2023-02-11T12:10:50;7.78;;;5.05;;
32138;SDS011;18644;48.700;9.210;2023-02-11T12:13:31;7.55;;;5.13;;
32138;SDS011;18644;48.700;9.210;2023-02-11T12:16:10;8.10;;;6.20;;
32138;SDS011;18644;48.700;9.210;2023-02-11T12:21:35;6.68;;;4.18;;
32138;SDS011;18644;48.700;9.210;2023-02-11T12:24:19;8.95;;;5.18;;
32138;SDS011;18644;48.700;9.210;2023-02-11T12:27:00;7.07;;;5.72;;
32138;SDS011;18644;48.700;9.210;2023-02-11T12:29:39;6.15;;;4.80;;
32138;SDS011;18644;48.700;9.210;2023-02-11T12:32:23;7.40;;;5.18;;
32138;SDS011;18644;48.700;9.210;2023-02-11T12:35:05;7.70;;;4.88;;
32138;SDS011;18644;48.700;9.210;2023-02-11T12:37:47;8.43;;;5.07;;
32138;SDS011;18644;48.700;9.210;2023-02-11T12:40:38;7.07;;;4.97;;
32138;SDS011;18644;48.700;9.210;2023-02-11T12:43:13;6.70;;;4.90;;
32138;SDS011;18644;48.700;9.210;2023-02-11T12:49:08;8.23;;;6.18;;
32138;SDS011;18644;48.700;9.210;2023-02-11T12:51:59;10.73;;;6.70;;
32138;SDS011;18644;48.700;9.210;2023-02-11T12:54:38;9.73;;;6.78;;
32138;SDS011;18644;48.700;9.210;2023-02-11T12:57:12;12.73;;;7.68;;
32138;SDS011;18644;48.700;9.210;2023-02-11T12:59:46;10.55;;;7.10;;
32138;SDS011;18644;48.700;9.210;2023-02-11T13:02:24;10.00;;;7.85;;
32138;SDS011;18644;48.700;9.210;2023-02-11T13:05:04;11.23;;;7.70;;
32138;SDS011;18644;48.700;9.210;2023-02-11T13:07:45;9.65;;;7.63;;
32138;SDS011;18644;48.700;9.210;2023-02-11T13:10:21;10.05;;;6.65;;
32138;SDS011;18644;48.700;9.210;2023-02-11T13:12:54;10.05;;;6.82;;
32138;SDS011;18644;48.700;9.210;2023-02-11T13:15:40;11.98;;;7.18;;
32138;SDS011;18644;48.700;9.210;2023-02-11T13:18:13;7.30;;;5.65;;
32138;SDS011;18644;48.700;9.210;2023-02-11T13:20:52;7.63;;;5.40;;
32138;SDS011;18644;48.700;9.210;2023-02-11T13:23:28;8.35;;;5.82;;
32138;SDS011;18644;48.700;9.210;2023-02-11T13:26:07;7.18;;;5.38;;
32138;SDS011;18644;48.700;9.210;2023-02-11T13:28:44;10.98;;;5.07;;
32138;SDS011;18644;48.700;9.210;2023-02-11T13:31:18;8.23;;;5.13;;
32138;SDS011;18644;48.700;9.210;2023-02-11T13:33:51;8.15;;;4.85;;
32138;SDS011;18644;48.700;9.210;2023-02-11T13:36:20;5.93;;;4.43;;
32138;SDS011;18644;48.700;9.210;2023-02-11T13:38:53;7.63;;;5.30;;
32138;SDS011;18644;48.700;9.210;2023-02-11T13:41:46;5.82;;;4.32;;
32138;SDS011;18644;48.700;9.210;2023-02-11T13:44:24;6.88;;;4.57;;
32138;SDS011;18644;48.700;9.210;2023-02-11T13:46:59;8.88;;;5.47;;
32138;SDS011;18644;48.700;9.210;2023-02-11T13:49:33;6.05;;;4.60;;
32138;SDS011;18644;48.700;9.210;2023-02-11T13:52:05;8.77;;;4.47;;
32138;SDS011;18644;48.700;9.210;2023-02-11T13:54:48;5.53;;;4.05;;
32138;SDS011;18644;48.700;9.210;2023-02-11T13:57:21;6.75;;;4.60;;
32138;SDS011;18644;48.700;9.210;2023-02-11T13:59:59;7.57;;;4.53;;
32138;SDS011;18644;48.700;9.210;2023-02-11T14:02:33;6.18;;;4.22;;
32138;SDS011;18644;48.700;9.210;2023-02-11T14:05:25;6.65;;;4.65;;
32138;SDS011;18644;48.700;9.210;2023-02-11T14:08:16;6.95;;;4.20;;
32138;SDS011;18644;48.700;9.210;2023-02-11T14:14:16;6.93;;;4.95;;
32138;SDS011;18644;48.700;9.210;2023-02-11T14:20:29;6.32;;;4.75;;
32138;SDS011;18644;48.700;9.210;2023-02-11T14:23:06;5.90;;;4.07;;
32138;SDS011;18644;48.700;9.210;2023-02-11T14:25:52;21.48;;;4.95;;
32138;SDS011;18644;48.700;9.210;2023-02-11T14:28:49;10.15;;;4.90;;
32138;SDS011;18644;48.700;9.210;2023-02-11T14:31:22;7.68;;;5.07;;
32138;SDS011;18644;48.700;9.210;2023-02-11T14:34:01;7.90;;;5.20;;
32138;SDS011;18644;48.700;9.210;2023-02-11T14:37:04;6.93;;;4.72;;
32138;SDS011;18644;48.700;9.210;2023-02-11T14:39:51;9.35;;;5.80;;
32138;SDS011;18644;48.700;9.210;2023-02-11T14:42:34;6.85;;;5.25;;
32138;SDS011;18644;48.700;9.210;2023-02-11T14:45:08;10.45;;;5.93;;
32138;SDS011;18644;48.700;9.210;2023-02-11T14:47:42;7.68;;;5.32;;
32138;SDS011;18644;48.700;9.210;2023-02-11T14:50:15;10.38;;;6.57;;
32138;SDS011;18644;48.700;9.210;2023-02-11T14:52:47;8.27;;;5.85;;
32138;SDS011;18644;48.700;9.210;2023-02-11T14:55:17;8.38;;;6.05;;
32138;SDS011;18644;48.700;9.210;2023-02-11T14:58:10;8.82;;;5.53;;
32138;SDS011;18644;48.700;9.210;2023-02-11T15:00:50;10.50;;;7.00;;
32138;SDS011;18644;48.700;9.210;2023-02-11T15:03:31;10.30;;;6.55;;
32138;SDS011;18644;48.700;9.210;2023-02-11T15:06:01;10.50;;;6.82;;
32138;SDS011;18644;48.700;9.210;2023-02-11T15:08:33;9.68;;;6.72;;
32138;SDS011;18644;48.700;9.210;2023-02-11T15:11:02;8.70;;;6.27;;
32138;SDS011;18644;48.700;9.210;2023-02-11T15:13:36;11.57;;;6.72;;
32138;SDS011;18644;48.700;9.210;2023-02-11T15:16:12;9.00;;;6.55;;
32138;SDS011;18644;48.700;9.210;2023-02-11T15:18:44;9.50;;;6.43;;
32138;SDS011;18644;48.700;9.210;2023-02-11T15:21:19;9.50;;;6.30;;
32138;SDS011;18644;48.700;9.210;2023-02-11T15:26:24;7.43;;;5.72;;